createdAt,value
2023-03-31T00:09:02.031Z,2.47
2023-03-31T00:31:41.923Z,2.38
2023-03-31T00:42:03.725Z,2.25
2023-03-31T00:52:32.636Z,2.15
2023-03-31T01:02:59.243Z,2.22
2023-03-31T01:13:24.357Z,1.58
2023-03-31T01:24:13.574Z,2.10
2023-03-31T01:35:07.063Z,1.60
2023-03-31T01:45:42.022Z,1.92
2023-03-31T01:56:08.892Z,1.48
2023-03-31T02:06:39.313Z,1.83
2023-03-31T02:17:03.942Z,1.50
2023-03-31T02:27:29.548Z,1.40
2023-03-31T02:37:52.588Z,1.13
2023-03-31T02:48:20.465Z,1.40
2023-03-31T02:59:17.775Z,1.70
2023-03-31T03:09:50.695Z,1.90
2023-03-31T03:20:14.353Z,1.70
2023-03-31T03:30:37.804Z,1.80
2023-03-31T03:41:01.733Z,1.52
2023-03-31T03:51:25.229Z,1.63
2023-03-31T04:01:46.965Z,1.85
2023-03-31T04:12:09.969Z,1.90
2023-03-31T04:22:35.221Z,2.35
2023-03-31T04:33:01.184Z,1.77
2023-03-31T04:43:23.214Z,1.65
2023-03-31T04:53:49.544Z,1.45
2023-03-31T05:04:10.869Z,1.65
2023-03-31T05:14:36.410Z,1.90
2023-03-31T05:24:58.230Z,1.90
2023-03-31T05:35:22.204Z,1.48
2023-03-31T05:45:43.689Z,2.30
2023-03-31T05:56:08.045Z,2.05
2023-03-31T06:06:30.159Z,2.10
2023-03-31T06:16:53.626Z,2.85
2023-03-31T06:27:16.407Z,2.17
2023-03-31T06:37:39.517Z,2.67
2023-03-31T06:48:01.289Z,1.83
2023-03-31T06:58:28.328Z,2.00
2023-03-31T07:08:55.676Z,2.03
2023-03-31T07:19:20.236Z,2.13
2023-03-31T07:29:45.126Z,2.10
2023-03-31T07:40:10.907Z,1.57
2023-03-31T07:50:34.560Z,2.70
2023-03-31T08:01:03.396Z,1.38
2023-03-31T08:11:25.896Z,2.00
2023-03-31T08:21:49.052Z,1.35
2023-03-31T08:32:15.317Z,1.58
2023-03-31T08:42:43.132Z,1.70
2023-03-31T08:53:09.832Z,1.67
2023-03-31T09:03:38.761Z,1.98
2023-03-31T09:14:30.089Z,2.08
2023-03-31T09:25:04.698Z,2.47
2023-03-31T09:46:09.644Z,2.00
2023-03-31T09:56:53.535Z,1.95
2023-03-31T10:07:22.452Z,2.13
2023-03-31T10:28:19.783Z,2.15
2023-03-31T10:38:46.358Z,2.15
2023-03-31T10:49:17.272Z,2.22
2023-03-31T10:59:53.032Z,1.88
2023-03-31T11:10:44.523Z,1.48
2023-03-31T11:21:18.043Z,1.60
2023-03-31T11:31:51.884Z,1.80
2023-03-31T11:42:22.008Z,2.30
2023-03-31T11:52:53.225Z,2.17
2023-03-31T12:03:17.731Z,2.70
2023-03-31T12:13:48.959Z,1.88
2023-03-31T12:24:14.047Z,2.13
2023-03-31T12:34:46.055Z,1.10
2023-03-31T12:45:19.497Z,1.20
2023-03-31T12:55:48.965Z,1.70
2023-03-31T13:06:16.208Z,2.67
2023-03-31T13:16:41.129Z,2.13
2023-03-31T13:27:38.151Z,2.58
2023-03-31T13:38:10.430Z,2.15
2023-03-31T13:48:45.155Z,2.53
2023-03-31T13:59:19.769Z,2.33
2023-03-31T14:09:49.467Z,2.03
2023-03-31T14:20:34.362Z,2.00
2023-03-31T14:31:26.968Z,1.77
2023-03-31T14:52:35.754Z,1.77
2023-03-31T15:03:01.218Z,1.40
2023-03-31T15:13:31.151Z,1.90
2023-03-31T15:23:58.042Z,2.40
2023-03-31T15:34:28.049Z,2.00
2023-03-31T15:44:56.463Z,1.80
2023-03-31T16:07:00.326Z,2.28
2023-03-31T16:17:29.649Z,2.00
2023-03-31T16:28:01.316Z,1.70
2023-03-31T16:38:30.463Z,2.00
2023-03-31T16:48:57.190Z,2.88
2023-03-31T16:59:20.656Z,1.95
2023-03-31T17:09:45.690Z,2.13
2023-03-31T17:20:12.135Z,2.65
2023-03-31T17:30:38.701Z,3.03
2023-03-31T17:41:07.941Z,3.97
2023-03-31T17:51:34.440Z,3.03
2023-03-31T18:12:21.941Z,4.82
2023-03-31T18:22:43.514Z,4.97
2023-03-31T18:44:16.842Z,6.85
2023-03-31T18:54:41.466Z,10.73
2023-03-31T19:05:03.538Z,7.38
2023-03-31T19:15:27.888Z,5.65
2023-03-31T19:25:56.640Z,7.55
2023-03-31T19:36:40.610Z,7.90
2023-03-31T19:47:08.183Z,8.63
2023-03-31T19:57:34.815Z,6.78
2023-03-31T20:08:06.957Z,6.85
2023-03-31T20:18:38.160Z,6.60
2023-03-31T20:29:07.117Z,5.97
2023-03-31T20:40:16.234Z,4.38
2023-03-31T20:52:16.785Z,4.97
2023-03-31T21:02:03.647Z,2.63
2023-03-31T21:12:25.519Z,2.15
2023-03-31T21:22:48.518Z,2.45
2023-03-31T21:33:10.121Z,2.10
2023-03-31T21:43:35.435Z,1.58
2023-03-31T21:53:57.713Z,1.50
2023-03-31T22:04:21.033Z,1.80
2023-03-31T22:14:45.726Z,1.83
2023-03-31T22:25:19.390Z,2.47
2023-03-31T22:35:43.723Z,2.30
2023-03-31T22:46:08.106Z,2.30
2023-03-31T22:56:31.220Z,2.30
2023-03-31T23:06:56.051Z,2.05
2023-03-31T23:17:17.804Z,2.55
2023-03-31T23:27:40.946Z,2.63
2023-03-31T23:38:04.235Z,2.20
2023-03-31T23:48:27.485Z,2.50
2023-03-31T23:58:49.271Z,2.60
